createdAt,value
2022-08-26T00:02:10.728Z,16.57
2022-08-26T00:07:18.246Z,16.48
2022-08-26T00:12:25.842Z,16.54
2022-08-26T00:17:33.745Z,16.61
2022-08-26T00:22:41.779Z,16.65
2022-08-26T00:27:50.485Z,16.56
2022-08-26T00:32:58.881Z,16.48
2022-08-26T00:38:05.674Z,16.43
2022-08-26T00:43:12.222Z,16.4
2022-08-26T00:48:19.570Z,16.47
2022-08-26T00:53:26.621Z,16.46
2022-08-26T00:58:34.392Z,16.4
2022-08-26T01:03:41.674Z,16.38
2022-08-26T01:08:48.886Z,16.39
2022-08-26T01:13:56.352Z,16.41
2022-08-26T01:19:03.679Z,16.3
2022-08-26T01:24:10.844Z,16.2
2022-08-26T01:29:18.645Z,16.15
2022-08-26T01:34:27.350Z,16.16
2022-08-26T01:39:34.628Z,16.19
2022-08-26T01:44:42.151Z,16.22
2022-08-26T01:49:49.681Z,16.29
2022-08-26T01:54:56.366Z,16.2
2022-08-26T02:00:03.421Z,16.26
2022-08-26T02:05:10.918Z,16.24
2022-08-26T02:10:17.827Z,16.28
2022-08-26T02:15:25.043Z,16.28
2022-08-26T02:20:32.603Z,16.23
2022-08-26T02:25:40.260Z,16.08
2022-08-26T02:30:48.533Z,16.07
2022-08-26T02:35:56.181Z,16.12
2022-08-26T02:41:03.140Z,16.08
2022-08-26T02:46:11.638Z,16.02
2022-08-26T02:51:19.324Z,16.12
2022-08-26T02:56:27.414Z,16.2
2022-08-26T03:01:34.296Z,16.16
2022-08-26T03:06:42.132Z,16.15
2022-08-26T03:11:49.735Z,16.06
2022-08-26T03:16:57.512Z,15.96
2022-08-26T03:22:04.370Z,15.8
2022-08-26T03:27:14.011Z,15.8
2022-08-26T03:32:22.486Z,15.71
2022-08-26T03:37:35.270Z,15.66
2022-08-26T03:42:42.155Z,15.67
2022-08-26T03:47:50.046Z,15.72
2022-08-26T03:52:57.500Z,15.8
2022-08-26T03:58:05.739Z,15.82
2022-08-26T04:03:12.840Z,15.76
2022-08-26T04:08:21.000Z,15.82
2022-08-26T04:13:29.172Z,15.82
2022-08-26T04:18:36.453Z,15.8
2022-08-26T04:23:42.939Z,15.88
2022-08-26T04:28:52.239Z,15.89
2022-08-26T04:34:05.803Z,15.89
2022-08-26T04:39:14.011Z,15.99
2022-08-26T04:44:21.418Z,16.06
2022-08-26T04:49:29.470Z,16.2
2022-08-26T04:54:37.053Z,16.41
2022-08-26T04:59:45.667Z,16.59
2022-08-26T05:04:52.707Z,16.75
2022-08-26T05:09:59.136Z,16.98
2022-08-26T05:15:07.100Z,17.25
2022-08-26T05:20:15.148Z,18.38
2022-08-26T05:25:23.947Z,21.31
2022-08-26T05:30:32.413Z,23.62
2022-08-26T05:35:39.771Z,24.69
2022-08-26T05:40:48.089Z,25.79
2022-08-26T05:45:55.398Z,26.54
2022-08-26T05:51:02.642Z,25.36
2022-08-26T05:56:09.485Z,24.62
2022-08-26T06:01:17.844Z,23.36
2022-08-26T06:06:24.245Z,22.53
2022-08-26T06:11:31.756Z,22.3
2022-08-26T06:16:40.481Z,22.79
2022-08-26T06:21:49.136Z,23.28
2022-08-26T06:26:58.097Z,23.7
2022-08-26T06:32:05.943Z,23.64
2022-08-26T06:37:14.662Z,23.93
2022-08-26T06:42:23.055Z,24.53
2022-08-26T06:47:30.815Z,24.97
2022-08-26T06:52:38.011Z,25.73
2022-08-26T06:57:46.330Z,26.42
2022-08-26T07:02:54.240Z,26.36
2022-08-26T07:08:01.786Z,26.22
2022-08-26T07:13:09.647Z,26.28
2022-08-26T07:18:17.522Z,26.08
2022-08-26T07:23:25.367Z,26.07
2022-08-26T07:28:32.312Z,26.04
2022-08-26T07:33:40.231Z,26.43
2022-08-26T07:38:47.117Z,26.44
2022-08-26T07:43:54.801Z,26.8
2022-08-26T07:49:02.483Z,26.54
2022-08-26T07:54:10.335Z,26.33
2022-08-26T07:59:18.621Z,26.64
2022-08-26T08:04:26.118Z,26.78
2022-08-26T08:09:33.660Z,26.73
2022-08-26T08:14:41.475Z,27.02
2022-08-26T08:19:48.693Z,27.42
2022-08-26T08:24:55.961Z,27.66
2022-08-26T08:30:04.245Z,27.83
2022-08-26T08:35:11.694Z,27.92
2022-08-26T08:40:19.694Z,28.03
2022-08-26T08:45:27.294Z,28.17
2022-08-26T08:50:35.191Z,28.25
2022-08-26T08:55:42.319Z,28.42
2022-08-26T09:00:50.125Z,28.46
2022-08-26T09:05:57.470Z,28.62
2022-08-26T09:11:04.537Z,28.8
2022-08-26T09:16:12.380Z,28.94
2022-08-26T09:21:19.966Z,28.92
2022-08-26T09:26:26.776Z,29.23
2022-08-26T09:31:34.576Z,29.32
2022-08-26T09:36:42.257Z,29.62
2022-08-26T09:41:50.808Z,29.62
2022-08-26T09:46:58.577Z,29.6
2022-08-26T09:52:05.965Z,30.03
2022-08-26T09:57:14.657Z,30.52
2022-08-26T10:02:22.061Z,30.11
2022-08-26T10:07:30.134Z,30.23
2022-08-26T10:12:37.338Z,30.02
2022-08-26T10:17:45.684Z,30.2
2022-08-26T10:22:52.593Z,30.47
2022-08-26T10:28:01.173Z,30.89
2022-08-26T10:33:08.050Z,30.55
2022-08-26T10:38:15.931Z,30.16
2022-08-26T10:43:24.108Z,30.38
2022-08-26T10:48:31.708Z,30.6
2022-08-26T10:53:39.403Z,30.49
2022-08-26T10:58:46.174Z,29.53
2022-08-26T11:03:53.178Z,30.78
2022-08-26T11:09:01.021Z,31.64
2022-08-26T11:14:08.975Z,32.56
2022-08-26T11:19:17.202Z,32.4
2022-08-26T11:24:25.637Z,31.61
2022-08-26T11:29:33.010Z,30.96
2022-08-26T11:34:40.255Z,30.22
2022-08-26T11:39:49.276Z,30.1
2022-08-26T11:44:57.384Z,31.16
2022-08-26T11:50:05.235Z,30.84
2022-08-26T11:55:13.485Z,30.34
2022-08-26T12:00:20.786Z,30.56
2022-08-26T12:05:28.575Z,31.3
2022-08-26T12:10:36.401Z,31.78
2022-08-26T12:15:44.290Z,31.58
2022-08-26T12:20:51.367Z,31.46
2022-08-26T12:25:59.264Z,32.24
2022-08-26T12:31:07.828Z,33.04
2022-08-26T12:36:16.403Z,33.8
2022-08-26T12:41:24.176Z,33.71
2022-08-26T12:46:37.666Z,33.99
2022-08-26T12:51:44.226Z,34.0
2022-08-26T12:56:51.421Z,34.04
2022-08-26T13:01:59.268Z,33.97
2022-08-26T13:07:06.716Z,33.88
2022-08-26T13:12:13.704Z,33.89
2022-08-26T13:17:21.450Z,33.7
2022-08-26T13:22:29.671Z,34.28
2022-08-26T13:27:37.181Z,33.97
2022-08-26T13:32:44.549Z,34.06
2022-08-26T13:37:52.181Z,34.35
2022-08-26T13:43:00.320Z,34.78
2022-08-26T13:48:09.390Z,35.07
2022-08-26T13:53:16.318Z,35.12
2022-08-26T13:58:22.937Z,33.96
2022-08-26T14:03:30.399Z,33.17
2022-08-26T14:08:39.062Z,32.81
2022-08-26T14:13:46.201Z,32.68
2022-08-26T14:18:53.711Z,32.72
2022-08-26T14:25:32.978Z,32.57
2022-08-26T14:30:38.937Z,32.92
2022-08-26T14:35:45.503Z,33.29
2022-08-26T14:40:52.663Z,33.52
2022-08-26T14:46:00.506Z,33.6
2022-08-26T14:51:07.598Z,33.79
2022-08-26T14:56:16.597Z,34.02
2022-08-26T15:01:24.768Z,33.7
2022-08-26T15:06:32.248Z,33.47
2022-08-26T15:11:39.791Z,33.3
2022-08-26T15:16:47.451Z,32.82
2022-08-26T15:21:54.170Z,32.24
2022-08-26T15:27:01.376Z,32.17
2022-08-26T15:32:12.361Z,32.46
2022-08-26T15:37:20.219Z,32.17
2022-08-26T15:42:26.136Z,32.32
2022-08-26T15:47:32.701Z,32.26
2022-08-26T15:52:39.853Z,31.49
2022-08-26T15:57:46.639Z,31.5
2022-08-26T16:02:54.169Z,30.26
2022-08-26T16:08:01.069Z,28.92
2022-08-26T16:13:08.436Z,28.2
2022-08-26T16:18:14.894Z,28.9
2022-08-26T16:23:21.828Z,29.72
2022-08-26T16:28:29.332Z,29.94
2022-08-26T16:33:37.503Z,29.57
2022-08-26T16:38:44.636Z,28.42
2022-08-26T16:43:52.484Z,27.54
2022-08-26T16:48:59.403Z,26.58
2022-08-26T16:54:06.038Z,25.98
2022-08-26T16:59:14.306Z,25.44
2022-08-26T17:04:21.713Z,24.86
2022-08-26T17:09:29.826Z,24.52
2022-08-26T17:14:38.173Z,24.32
2022-08-26T17:19:46.012Z,24.2
2022-08-26T17:24:53.855Z,23.98
2022-08-26T17:30:00.544Z,23.71
2022-08-26T17:35:07.745Z,23.3
2022-08-26T17:40:15.356Z,22.9
2022-08-26T17:45:22.822Z,22.66
2022-08-26T17:50:30.672Z,22.48
2022-08-26T17:55:39.092Z,22.21
2022-08-26T18:00:47.026Z,22.15
2022-08-26T18:05:54.010Z,22.08
2022-08-26T18:11:00.252Z,22.01
2022-08-26T18:16:07.260Z,21.96
2022-08-26T18:21:14.464Z,22.03
2022-08-26T18:26:21.658Z,22.15
2022-08-26T18:31:29.823Z,22.06
2022-08-26T18:36:37.426Z,21.94
2022-08-26T18:41:45.294Z,21.81
2022-08-26T18:46:53.053Z,22.11
2022-08-26T18:52:04.112Z,22.32
2022-08-26T18:57:17.050Z,22.38
2022-08-26T19:02:23.581Z,22.4
2022-08-26T19:07:30.203Z,22.34
2022-08-26T19:12:37.342Z,22.22
2022-08-26T19:17:44.537Z,22.16
2022-08-26T19:23:06.731Z,22.01
2022-08-26T19:28:15.299Z,21.89
2022-08-26T19:33:23.049Z,21.78
2022-08-26T19:38:30.292Z,21.73
2022-08-26T19:43:44.730Z,21.66
2022-08-26T19:48:50.780Z,21.58
2022-08-26T19:53:58.621Z,21.38
2022-08-26T19:59:05.181Z,21.24
2022-08-26T20:04:12.956Z,21.12
2022-08-26T20:09:20.382Z,21.1
2022-08-26T20:14:28.063Z,21.03
2022-08-26T20:19:35.258Z,20.99
2022-08-26T20:24:42.462Z,21.03
2022-08-26T20:29:50.810Z,21.06
2022-08-26T20:34:58.896Z,21.24
2022-08-26T20:40:08.335Z,21.44
2022-08-26T20:45:15.309Z,21.58
2022-08-26T20:50:22.302Z,22.03
2022-08-26T20:55:29.634Z,22.35
2022-08-26T21:00:38.038Z,21.3
2022-08-26T21:05:43.883Z,19.99
2022-08-26T21:10:49.853Z,19.36
2022-08-26T21:15:58.808Z,19.0
2022-08-26T21:21:06.007Z,18.52
2022-08-26T21:26:13.345Z,18.28
2022-08-26T21:31:20.842Z,18.12
2022-08-26T21:36:28.373Z,18.16
2022-08-26T21:41:37.297Z,18.33
2022-08-26T21:46:45.037Z,18.5
2022-08-26T21:51:52.409Z,18.49
2022-08-26T21:56:59.935Z,18.53
2022-08-26T22:03:38.501Z,18.56
2022-08-26T22:08:45.021Z,18.58
2022-08-26T22:13:52.236Z,18.58
2022-08-26T22:18:59.542Z,18.64
2022-08-26T22:24:06.950Z,18.73
2022-08-26T22:29:15.724Z,18.76
2022-08-26T22:34:22.649Z,18.76
2022-08-26T22:39:30.174Z,18.8
2022-08-26T22:44:38.278Z,18.82
2022-08-26T22:49:45.818Z,18.82
2022-08-26T22:54:53.981Z,18.83
2022-08-26T23:00:02.020Z,18.82
2022-08-26T23:05:09.338Z,18.8
2022-08-26T23:10:16.567Z,18.82
2022-08-26T23:15:23.741Z,18.86
2022-08-26T23:20:32.533Z,18.9
2022-08-26T23:25:41.073Z,18.92
2022-08-26T23:30:49.347Z,18.92
2022-08-26T23:35:57.617Z,18.94
2022-08-26T23:41:04.862Z,18.97
2022-08-26T23:46:12.714Z,19.0
2022-08-26T23:51:20.604Z,18.99
2022-08-26T23:56:28.416Z,18.96
